Opal — 9HA2265 — position and weather

sailwx.info

Track history (hours):
 
Tides and Currents Weather Stations Pressure Air Temp Water Temp Dewpoint Dewpoint Depression Visibility Wind Speed Wind Dir Waves Ship Positions

Opal

Last reported at 2018-Aug-17 18:17 UTC. Time now 2018-Aug-19 22:51 UTC.
Position N 39°49' E 025°44'.

Length 59 m; draft 4.8 m.

Type: Tug. MMSI: 248219000.

Date/timePositionNaut miles runAvg speedWind from/ knotsBaromVisibWave heightAir tempDewpointWater temp
2018-Aug-17 18:17N 39°49' E 025°44'3 8.5
2018-Aug-17 17:53N 39°52' E 025°46'4 8.4
2018-Aug-17 17:26N 39°54' E 025°50'  
2018-Aug-09 20:59N 36°25' E 015°04'710.6
2018-Aug-09 20:17N 36°26' E 014°55'310.7
2018-Aug-09 20:00N 36°26' E 014°51'510.7
2018-Aug-09 19:30N 36°26' E 014°44'510.7
2018-Aug-09 19:00N 36°26' E 014°37'510.6
2018-Aug-09 18:30N 36°27' E 014°31'610.5
2018-Aug-09 17:54N 36°30' E 014°24'410.3
2018-Aug-09 17:30N 36°31' E 014°19'710.2
2018-Aug-09 16:52N 36°33' E 014°11'410.2
2018-Aug-09 16:25N 36°34' E 014°06'410.3
2018-Aug-09 16:00N 36°35' E 014°01'510.2
2018-Aug-09 15:29N 36°37' E 013°54'510.3
2018-Aug-09 15:00N 36°39' E 013°49'510.2
2018-Aug-09 14:30N 36°40' E 013°43'510.1
2018-Aug-09 14:00N 36°42' E 013°37'510.1
2018-Aug-09 13:30N 36°43' E 013°31'510.0
2018-Aug-09 13:00N 36°45' E 013°25'510.1
2018-Aug-09 12:30N 36°47' E 013°19'510.2
2018-Aug-09 12:00N 36°48' E 013°13'510.2
2018-Aug-09 11:29N 36°50' E 013°06'510.1
2018-Aug-09 10:57N 36°52' E 012°60'5 9.8
2018-Aug-09 10:29N 36°53' E 012°55'510.0
2018-Aug-09 09:59N 36°55' E 012°49'510.1
2018-Aug-09 09:30N 36°56' E 012°43'510.4
2018-Aug-09 09:00N 36°58' E 012°37'510.1
2018-Aug-09 08:31N 36°59' E 012°31'510.3
2018-Aug-09 08:00N 37°01' E 012°25'  
Track history (hours):
 
Tides and Currents Weather Stations Pressure Air Temp Water Temp Dewpoint Dewpoint Depression Visibility Wind Speed Wind Dir Waves Ship Positions

Opal

Last reported at 2018-Aug-17 18:17 UTC. Time now 2018-Aug-19 22:51 UTC.
Position N 39°49' E 025°44'.

Length 59 m; draft 4.8 m.

Type: Tug. MMSI: 248219000.

Date/timePositionNaut miles runAvg speedWind from/ knotsBaromVisibWave heightAir tempDewpointWater temp
2018-Aug-17 18:17N 39°49' E 025°44'3 8.5
2018-Aug-17 17:53N 39°52' E 025°46'4 8.4
2018-Aug-17 17:26N 39°54' E 025°50'  
2018-Aug-09 20:59N 36°25' E 015°04'710.6
2018-Aug-09 20:17N 36°26' E 014°55'310.7
2018-Aug-09 20:00N 36°26' E 014°51'510.7
2018-Aug-09 19:30N 36°26' E 014°44'510.7
2018-Aug-09 19:00N 36°26' E 014°37'510.6
2018-Aug-09 18:30N 36°27' E 014°31'610.5
2018-Aug-09 17:54N 36°30' E 014°24'410.3
2018-Aug-09 17:30N 36°31' E 014°19'710.2
2018-Aug-09 16:52N 36°33' E 014°11'410.2
2018-Aug-09 16:25N 36°34' E 014°06'410.3
2018-Aug-09 16:00N 36°35' E 014°01'510.2
2018-Aug-09 15:29N 36°37' E 013°54'510.3
2018-Aug-09 15:00N 36°39' E 013°49'510.2
2018-Aug-09 14:30N 36°40' E 013°43'510.1
2018-Aug-09 14:00N 36°42' E 013°37'510.1
2018-Aug-09 13:30N 36°43' E 013°31'510.0
2018-Aug-09 13:00N 36°45' E 013°25'510.1
2018-Aug-09 12:30N 36°47' E 013°19'510.2
2018-Aug-09 12:00N 36°48' E 013°13'510.2
2018-Aug-09 11:29N 36°50' E 013°06'510.1
2018-Aug-09 10:57N 36°52' E 012°60'5 9.8
2018-Aug-09 10:29N 36°53' E 012°55'510.0
2018-Aug-09 09:59N 36°55' E 012°49'510.1
2018-Aug-09 09:30N 36°56' E 012°43'510.4
2018-Aug-09 09:00N 36°58' E 012°37'510.1
2018-Aug-09 08:31N 36°59' E 012°31'510.3
2018-Aug-09 08:00N 37°01' E 012°25'  

Dump ship's entire track history